Time;durP1;ratioP1;P1;durP2;ratioP2;P2;SDS_P1;SDS_P2;PMS_P1;PMS_P2;Temp;Humidity;BMP_temperature;BMP_pressure;BME280_temperature;BME280_humidity;BME280_pressure;Samples;Min_cycle;Max_cycle;Signal;HPM_P1;HPM_P2
2022/05/15 00:01:52;;;;;;;;;12.00;12.00;24.40;33.60;;;;;;5040590;28;8741;-75
2022/05/15 00:04:18;;;;;;;;;13.00;13.00;24.20;34.20;;;;;;5040541;28;9582;-75
2022/05/15 00:06:44;;;;;;;;;10.67;10.67;24.30;34.00;;;;;;5040395;28;8778;-75
2022/05/15 00:09:10;;;;;;;;;10.67;10.67;24.20;34.20;;;;;;5040595;28;8835;-76
2022/05/15 00:11:35;;;;;;;;;8.00;8.00;24.20;34.10;;;;;;5040367;28;8804;-75
2022/05/15 00:14:02;;;;;;;;;12.67;12.67;24.00;35.40;;;;;;5040382;28;8781;-74
2022/05/15 00:16:31;;;;;;;;;11.67;11.67;23.70;34.80;;;;;;5040666;28;8781;-75
2022/05/15 00:18:57;;;;;;;;;10.00;10.00;23.70;35.10;;;;;;5040600;28;9455;-74
2022/05/15 00:21:25;;;;;;;;;11.67;11.67;23.70;35.10;;;;;;5040653;28;8789;-74
2022/05/15 00:23:51;;;;;;;;;11.00;11.00;23.70;34.90;;;;;;5040615;28;8880;-75
2022/05/15 00:26:17;;;;;;;;;11.33;11.33;24.00;34.90;;;;;;5040512;28;8868;-75
2022/05/15 00:28:43;;;;;;;;;11.33;11.33;24.20;34.20;;;;;;5040478;28;9531;-74
2022/05/15 00:31:09;;;;;;;;;10.00;10.00;24.30;34.00;;;;;;5040578;28;8766;-75
2022/05/15 00:33:35;;;;;;;;;9.00;9.00;24.20;33.90;;;;;;5036909;28;8864;-78
2022/05/15 00:36:01;;;;;;;;;13.00;13.00;24.20;34.00;;;;;;5037186;28;9435;-79
2022/05/15 00:38:27;;;;;;;;;13.00;13.00;24.20;33.90;;;;;;5037354;28;8781;-80
2022/05/15 00:40:53;;;;;;;;;12.67;12.67;24.10;34.10;;;;;;5037294;28;9435;-80
2022/05/15 00:43:41;;;;;;;;;11.67;11.67;23.90;34.60;;;;;;5037187;28;8782;-78
2022/05/15 00:46:10;;;;;;;;;10.33;10.33;23.90;34.70;;;;;;5036942;28;8789;-75
2022/05/15 00:48:36;;;;;;;;;12.33;12.33;23.80;34.80;;;;;;5037053;28;8937;-78
2022/05/15 00:51:09;;;;;;;;;12.33;12.33;23.80;34.80;;;;;;5037095;28;8780;-76
2022/05/15 00:53:37;;;;;;;;;11.00;11.00;23.80;34.80;;;;;;5037115;28;8773;-77
2022/05/15 00:56:03;;;;;;;;;11.33;11.33;23.70;34.80;;;;;;5036808;28;8865;-76
2022/05/15 00:58:37;;;;;;;;;12.00;12.00;23.50;35.50;;;;;;5036764;28;8774;-75
2022/05/15 01:01:05;;;;;;;;;12.00;12.00;23.40;35.40;;;;;;5036694;28;8754;-76
2022/05/15 01:03:31;;;;;;;;;14.00;14.00;23.50;35.50;;;;;;5036760;28;8820;-76
2022/05/15 01:05:58;;;;;;;;;12.33;12.33;23.70;35.10;;;;;;5036838;28;9430;-76
2022/05/15 01:08:27;;;;;;;;;19.33;19.33;23.40;35.60;;;;;;5036423;28;8851;-76
2022/05/15 01:10:59;;;;;;;;;13.33;13.33;23.50;35.40;;;;;;5036748;28;8913;-76
2022/05/15 01:13:29;;;;;;;;;12.33;12.33;23.40;35.70;;;;;;5036682;28;8786;-76
2022/05/15 01:15:56;;;;;;;;;13.33;13.33;23.60;35.60;;;;;;5036639;28;8785;-75
2022/05/15 01:18:28;;;;;;;;;9.00;9.00;23.50;35.50;;;;;;5036482;28;8769;-75
2022/05/15 01:20:59;;;;;;;;;9.67;9.67;23.50;35.50;;;;;;5036469;28;8793;-74
2022/05/15 01:23:25;;;;;;;;;12.00;12.00;23.60;35.30;;;;;;5036286;28;8742;-75
2022/05/15 01:25:51;;;;;;;;;11.00;11.00;23.60;35.00;;;;;;5036170;28;8832;-76
2022/05/15 01:28:20;;;;;;;;;10.33;10.33;23.40;35.50;;;;;;5036169;28;8777;-76
2022/05/15 01:30:51;;;;;;;;;10.33;10.33;23.50;35.30;;;;;;5036168;28;8761;-75
2022/05/15 01:33:17;;;;;;;;;9.00;9.00;23.50;35.30;;;;;;5035984;28;8810;-75
2022/05/15 01:35:43;;;;;;;;;12.67;12.67;23.60;35.30;;;;;;5036253;28;8851;-76
2022/05/15 01:38:09;;;;;;;;;14.00;14.00;23.60;35.40;;;;;;5036029;28;8753;-75
2022/05/15 01:40:35;;;;;;;;;13.33;13.33;23.20;35.40;;;;;;5036041;28;9419;-76
2022/05/15 01:43:02;;;;;;;;;5.67;5.67;23.20;35.80;;;;;;5035903;28;8809;-76
2022/05/15 01:45:28;;;;;;;;;11.67;11.67;23.10;35.90;;;;;;5034714;28;8773;-76
2022/05/15 01:47:54;;;;;;;;;9.67;9.67;23.10;35.80;;;;;;5036053;28;8778;-75
2022/05/15 01:50:20;;;;;;;;;9.33;9.33;23.20;35.80;;;;;;5035684;28;8794;-76
2022/05/15 01:52:46;;;;;;;;;9.67;9.67;23.10;35.90;;;;;;5035878;28;8789;-77
2022/05/15 01:55:13;;;;;;;;;11.67;11.67;23.00;35.80;;;;;;5036019;28;8773;-75
2022/05/15 01:57:40;;;;;;;;;10.33;10.33;23.10;35.60;;;;;;5035886;28;8762;-76
2022/05/15 02:00:09;;;;;;;;;11.67;11.67;23.10;35.60;;;;;;5035789;28;8777;-75
2022/05/15 02:02:34;;;;;;;;;12.00;12.00;23.00;35.80;;;;;;5035727;28;8793;-76
2022/05/15 02:05:00;;;;;;;;;11.00;11.00;22.80;36.20;;;;;;5035708;28;8781;-74
2022/05/15 02:07:26;;;;;;;;;9.67;9.67;22.70;36.50;;;;;;5035653;28;8819;-75
2022/05/15 02:09:51;;;;;;;;;11.00;11.00;23.00;36.20;;;;;;5034698;28;8952;-76
2022/05/15 02:12:17;;;;;;;;;10.00;10.00;23.10;35.60;;;;;;5035334;28;8769;-75
2022/05/15 02:14:43;;;;;;;;;11.33;11.33;23.00;35.90;;;;;;5035330;28;8876;-77
2022/05/15 02:17:08;;;;;;;;;12.00;12.00;23.00;35.60;;;;;;5035161;28;9417;-76
2022/05/15 02:19:34;;;;;;;;;13.33;13.33;23.00;35.80;;;;;;5035455;28;8770;-75
2022/05/15 02:22:00;;;;;;;;;13.00;13.00;23.20;35.70;;;;;;5035449;28;8789;-76
2022/05/15 02:24:26;;;;;;;;;12.33;12.33;23.00;35.70;;;;;;5035437;28;8859;-76
2022/05/15 02:26:52;;;;;;;;;11.67;11.67;23.10;36.10;;;;;;5035070;28;8796;-74
2022/05/15 02:29:17;;;;;;;;;13.00;13.00;23.00;36.20;;;;;;5035004;28;8801;-76
2022/05/15 02:31:43;;;;;;;;;11.00;11.00;23.20;36.00;;;;;;5034998;28;8789;-76
2022/05/15 02:34:09;;;;;;;;;11.33;11.33;23.40;35.80;;;;;;5034850;28;8828;-74
2022/05/15 02:36:35;;;;;;;;;11.67;11.67;23.30;35.60;;;;;;5034889;28;8762;-75
2022/05/15 02:39:00;;;;;;;;;12.00;12.00;23.40;35.60;;;;;;5034858;28;8777;-76
2022/05/15 02:41:26;;;;;;;;;12.67;12.67;23.40;35.70;;;;;;5034810;28;8782;-76
2022/05/15 02:43:52;;;;;;;;;14.67;14.67;23.40;36.00;;;;;;5035140;28;8754;-76
2022/05/15 02:46:18;;;;;;;;;8.67;8.67;23.40;35.50;;;;;;5034986;28;8896;-76
2022/05/15 02:51:29;;;;;;;;;8.33;8.33;23.30;36.10;;;;;;5034793;28;8750;-76
2022/05/15 02:53:55;;;;;;;;;12.33;12.33;23.20;36.30;;;;;;5034677;28;8750;-76
2022/05/15 02:56:23;;;;;;;;;12.00;12.00;23.20;36.30;;;;;;5034225;28;8851;-77
2022/05/15 02:58:50;;;;;;;;;12.00;12.00;23.00;36.70;;;;;;5034560;28;8880;-75
2022/05/15 03:01:16;;;;;;;;;10.67;10.67;23.00;36.80;;;;;;5034762;28;8819;-76
2022/05/15 03:03:43;;;;;;;;;13.33;13.33;23.00;36.80;;;;;;5034635;28;8821;-76
2022/05/15 03:06:09;;;;;;;;;11.00;11.00;22.90;36.70;;;;;;5034442;28;8781;-76
2022/05/15 03:08:41;;;;;;;;;14.33;14.33;23.00;36.50;;;;;;5033599;28;8798;-76
2022/05/15 03:11:08;;;;;;;;;11.00;11.00;22.90;36.40;;;;;;5034539;28;8788;-74
2022/05/15 03:13:35;;;;;;;;;13.00;13.00;22.90;36.60;;;;;;5034462;28;8750;-75
2022/05/15 03:16:05;;;;;;;;;10.33;10.33;22.90;36.60;;;;;;5033319;28;8797;-74
2022/05/15 03:18:31;;;;;;;;;14.33;14.33;22.80;36.60;;;;;;5034373;28;8785;-75
2022/05/15 03:20:57;;;;;;;;;11.67;11.67;22.80;36.80;;;;;;5034348;28;8746;-75
2022/05/15 03:23:23;;;;;;;;;15.00;15.00;22.80;36.80;;;;;;5034244;28;8806;-74
2022/05/15 03:25:49;;;;;;;;;17.00;17.00;22.80;38.00;;;;;;5034473;28;8777;-74
2022/05/15 03:28:15;;;;;;;;;15.00;15.00;22.70;36.90;;;;;;5034394;28;8817;-75
2022/05/15 03:30:43;;;;;;;;;13.67;13.67;22.70;37.30;;;;;;5034292;28;8766;-75
2022/05/15 03:33:10;;;;;;;;;15.33;15.33;22.70;37.40;;;;;;5034037;28;8813;-74
2022/05/15 03:35:36;;;;;;;;;14.00;14.00;22.60;37.50;;;;;;5034419;28;8762;-74
2022/05/15 03:38:03;;;;;;;;;14.00;14.00;22.50;38.00;;;;;;5034185;28;8766;-75
2022/05/15 03:40:29;;;;;;;;;12.33;12.33;22.40;38.10;;;;;;5034157;28;8896;-74
2022/05/15 03:42:55;;;;;;;;;14.33;14.33;22.30;38.10;;;;;;5034315;28;8884;-75
2022/05/15 03:45:21;;;;;;;;;14.33;14.33;21.80;38.90;;;;;;5033092;28;8785;-75
2022/05/15 03:47:48;;;;;;;;;14.33;14.33;21.80;39.30;;;;;;5034398;28;8762;-76
2022/05/15 03:50:15;;;;;;;;;17.33;17.33;21.90;39.10;;;;;;5034193;28;8879;-76
2022/05/15 03:52:41;;;;;;;;;15.33;15.33;21.40;40.00;;;;;;5034069;28;8762;-75
2022/05/15 03:55:08;;;;;;;;;15.00;15.00;21.50;40.20;;;;;;5034269;28;8789;-76
2022/05/15 03:57:34;;;;;;;;;17.00;17.00;21.20;40.30;;;;;;5033965;28;9470;-76
2022/05/15 04:00:00;;;;;;;;;13.00;13.00;21.10;41.10;;;;;;5032892;28;9463;-74
2022/05/15 04:02:26;;;;;;;;;14.67;14.67;21.30;41.00;;;;;;5033991;28;9435;-75
2022/05/15 04:04:52;;;;;;;;;13.33;13.33;21.30;41.10;;;;;;5032837;28;8866;-75
2022/05/15 04:07:18;;;;;;;;;17.00;17.00;21.30;40.90;;;;;;5034067;28;8777;-74
2022/05/15 04:09:44;;;;;;;;;12.33;12.33;21.30;40.90;;;;;;5037548;28;9419;-75
2022/05/15 04:12:12;;;;;;;;;17.00;17.00;21.00;41.10;;;;;;5037632;28;8766;-76
2022/05/15 04:14:38;;;;;;;;;16.00;16.00;21.10;41.70;;;;;;5037549;28;8770;-76
2022/05/15 04:17:05;;;;;;;;;17.67;17.67;20.50;43.10;;;;;;5037761;28;9457;-74
2022/05/15 04:19:33;;;;;;;;;14.33;14.33;20.10;43.90;;;;;;5037740;28;8793;-75
2022/05/15 04:22:02;;;;;;;;;17.67;17.67;20.10;44.20;;;;;;5037355;28;8770;-74
2022/05/15 04:24:28;;;;;;;;;18.00;18.00;20.10;45.60;;;;;;5037347;28;8785;-75
2022/05/15 04:26:54;;;;;;;;;13.67;13.67;20.30;44.00;;;;;;5037410;28;8766;-74
2022/05/15 04:29:20;;;;;;;;;14.67;14.67;20.10;44.30;;;;;;5037251;28;8889;-75
2022/05/15 04:31:46;;;;;;;;;13.00;13.00;20.10;44.40;;;;;;5037518;28;9833;-75
2022/05/15 04:34:12;;;;;;;;;18.67;18.67;20.00;45.10;;;;;;5037016;28;8975;-75
2022/05/15 04:36:38;;;;;;;;;15.00;15.00;19.90;45.40;;;;;;5037223;28;8836;-74
2022/05/15 04:39:05;;;;;;;;;18.33;18.33;19.90;45.40;;;;;;5037344;28;8812;-75
2022/05/15 04:41:31;;;;;;;;;18.33;18.33;20.00;45.50;;;;;;5037062;28;8777;-76
2022/05/15 04:43:57;;;;;;;;;20.00;20.00;20.20;45.00;;;;;;5037033;28;8778;-75
2022/05/15 04:46:26;;;;;;;;;16.00;16.00;20.50;44.70;;;;;;5036964;28;8773;-75
2022/05/15 04:48:52;;;;;;;;;14.67;14.67;20.50;44.40;;;;;;5036887;28;8805;-75
2022/05/15 04:51:18;;;;;;;;;17.33;17.33;20.50;44.40;;;;;;5037267;28;8788;-76
2022/05/15 04:53:43;;;;;;;;;19.00;19.00;20.70;44.10;;;;;;5037090;28;8773;-74
2022/05/15 04:56:09;;;;;;;;;18.33;18.33;21.00;43.60;;;;;;5036785;28;8808;-75
2022/05/15 04:58:35;;;;;;;;;19.67;19.67;21.30;43.10;;;;;;5036998;28;8784;-74
2022/05/15 05:01:01;;;;;;;;;19.67;19.67;21.40;42.50;;;;;;5035615;28;8778;-74
2022/05/15 05:03:26;;;;;;;;;19.33;19.33;21.60;42.20;;;;;;5036565;28;8809;-74
2022/05/15 05:05:52;;;;;;;;;18.67;18.67;21.60;41.70;;;;;;5036657;28;8811;-75
2022/05/15 05:08:18;;;;;;;;;9.67;9.67;21.70;42.00;;;;;;5036540;28;8867;-76
2022/05/15 05:10:44;;;;;;;;;19.00;19.00;22.00;41.60;;;;;;5036750;28;8769;-75
2022/05/15 05:13:10;;;;;;;;;20.33;20.33;22.00;41.60;;;;;;5036717;28;8812;-74
2022/05/15 05:15:35;;;;;;;;;18.33;18.33;21.50;42.80;;;;;;5036658;28;8787;-75
2022/05/15 05:18:01;;;;;;;;;17.67;17.67;21.40;43.70;;;;;;5036561;28;9462;-75
2022/05/15 05:20:27;;;;;;;;;16.00;16.00;21.70;43.20;;;;;;5036196;28;8791;-75
2022/05/15 05:22:53;;;;;;;;;17.00;17.00;21.40;43.60;;;;;;5036660;28;8754;-76
2022/05/15 05:25:19;;;;;;;;;16.33;16.33;21.70;43.20;;;;;;5036539;28;8815;-74
2022/05/15 05:27:45;;;;;;;;;23.67;22.67;22.00;42.40;;;;;;5036141;28;8769;-76
2022/05/15 05:30:19;;;;;;;;;20.67;20.67;22.00;42.00;;;;;;5036278;28;8805;-75
2022/05/15 05:32:46;;;;;;;;;17.67;17.67;21.90;42.20;;;;;;5035994;28;8801;-75
2022/05/15 05:35:13;;;;;;;;;19.33;19.33;22.20;42.40;;;;;;5036074;28;8778;-76
2022/05/15 05:37:39;;;;;;;;;17.67;17.67;22.10;42.20;;;;;;5036045;28;8847;-76
2022/05/15 05:40:06;;;;;;;;;19.33;19.33;22.30;42.20;;;;;;5035970;28;8781;-76
2022/05/15 05:42:32;;;;;;;;;16.33;16.33;22.40;41.20;;;;;;5035849;28;8769;-77
2022/05/15 05:44:58;;;;;;;;;24.33;24.33;22.30;41.20;;;;;;5035891;28;9485;-76
2022/05/15 05:47:25;;;;;;;;;23.67;23.67;22.10;41.70;;;;;;5036026;28;8781;-75
2022/05/15 05:49:51;;;;;;;;;18.00;18.00;21.90;42.30;;;;;;5035853;28;8817;-76
2022/05/15 05:52:17;;;;;;;;;18.00;18.00;22.30;42.00;;;;;;5035953;28;8812;-76
2022/05/15 05:54:43;;;;;;;;;17.33;17.33;22.50;40.80;;;;;;5035681;28;8749;-75
2022/05/15 05:57:08;;;;;;;;;17.67;17.67;22.40;41.30;;;;;;5035504;28;8811;-76
2022/05/15 05:59:34;;;;;;;;;13.67;13.67;22.30;41.20;;;;;;5035900;28;8785;-76
2022/05/15 06:02:00;;;;;;;;;18.00;18.00;22.60;40.80;;;;;;5035538;28;8864;-76
2022/05/15 06:04:44;;;;;;;;;17.67;17.67;22.90;40.50;;;;;;5035730;28;8786;-76
2022/05/15 06:07:15;;;;;;;;;19.00;19.00;22.90;40.70;;;;;;5035286;28;8785;-75
2022/05/15 06:09:44;;;;;;;;;16.00;16.00;22.80;41.20;;;;;;5035264;28;8958;-76
2022/05/15 06:12:12;;;;;;;;;11.33;11.33;22.90;41.10;;;;;;5035538;28;8773;-76
2022/05/15 06:14:38;;;;;;;;;17.00;17.00;23.00;41.50;;;;;;5035292;28;8762;-75
2022/05/15 06:17:04;;;;;;;;;14.33;14.33;22.90;41.30;;;;;;5035193;28;8762;-75
2022/05/15 06:19:30;;;;;;;;;11.00;11.00;23.10;40.80;;;;;;5035364;28;8781;-76
2022/05/15 06:21:56;;;;;;;;;15.67;15.67;23.30;41.10;;;;;;5035187;28;8798;-76
2022/05/15 06:24:22;;;;;;;;;17.00;17.00;23.40;39.40;;;;;;5035093;28;8803;-74
2022/05/15 06:26:48;;;;;;;;;15.67;15.67;23.60;39.10;;;;;;5035374;28;8884;-76
2022/05/15 06:29:14;;;;;;;;;19.33;19.33;23.50;39.50;;;;;;5035016;28;8789;-76
2022/05/15 06:31:40;;;;;;;;;14.00;14.00;23.60;39.30;;;;;;5034256;28;8754;-76
2022/05/15 06:34:05;;;;;;;;;15.67;14.67;23.70;39.10;;;;;;5034822;28;8856;-76
2022/05/15 06:36:32;;;;;;;;;13.00;13.00;23.50;39.50;;;;;;5034914;28;8793;-76
2022/05/15 06:38:57;;;;;;;;;15.67;15.67;23.40;39.90;;;;;;5034907;28;8846;-76
2022/05/15 06:41:24;;;;;;;;;15.67;15.67;23.40;40.30;;;;;;5035099;28;8781;-76
2022/05/15 06:43:51;;;;;;;;;12.33;12.33;23.70;39.40;;;;;;5034804;28;8782;-77
2022/05/15 06:46:17;;;;;;;;;18.67;18.67;23.60;39.40;;;;;;5035047;28;8814;-75
2022/05/15 06:48:43;;;;;;;;;21.67;21.67;23.80;39.10;;;;;;5034709;28;8839;-76
2022/05/15 06:51:09;;;;;;;;;15.33;15.33;23.90;38.90;;;;;;5034792;28;8782;-75
2022/05/15 06:53:35;;;;;;;;;22.67;22.67;24.10;38.10;;;;;;5034911;28;8774;-75
2022/05/15 06:58:45;;;;;;;;;23.67;22.00;24.10;37.80;;;;;;5034431;28;8753;-76
2022/05/15 07:01:12;;;;;;;;;21.67;21.67;24.10;38.00;;;;;;5034788;28;8804;-75
2022/05/15 07:03:38;;;;;;;;;18.00;18.00;23.90;38.50;;;;;;5034936;28;8801;-76
2022/05/15 07:06:03;;;;;;;;;15.67;15.67;23.70;38.40;;;;;;5034422;28;8778;-76
2022/05/15 07:08:29;;;;;;;;;16.00;16.00;24.00;38.40;;;;;;5034259;28;8778;-76
2022/05/15 07:10:55;;;;;;;;;14.67;14.67;24.30;38.30;;;;;;5050010;28;8769;-76
2022/05/15 07:13:21;;;;;;;;;16.33;16.33;24.40;37.20;;;;;;5034334;28;9404;-75
2022/05/15 07:15:46;;;;;;;;;15.67;15.67;24.60;36.80;;;;;;5034510;28;8770;-76
2022/05/15 07:18:12;;;;;;;;;16.33;16.33;24.90;36.40;;;;;;5034178;28;9543;-74
2022/05/15 07:20:38;;;;;;;;;15.00;15.00;24.90;36.00;;;;;;5034367;28;8860;-75
2022/05/15 07:23:05;;;;;;;;;18.33;18.33;24.70;35.10;;;;;;5034600;28;8881;-75
2022/05/15 07:25:31;;;;;;;;;13.33;13.33;24.70;35.30;;;;;;5034033;28;8831;-75
2022/05/15 07:27:56;;;;;;;;;14.67;14.67;24.90;35.90;;;;;;5033990;28;8769;-76
2022/05/15 07:30:22;;;;;;;;;14.33;14.33;24.80;35.70;;;;;;5034177;28;8882;-75
2022/05/15 07:32:48;;;;;;;;;18.00;18.00;25.00;35.50;;;;;;5034269;28;8935;-76
2022/05/15 07:35:14;;;;;;;;;13.00;13.00;25.10;34.70;;;;;;5034449;28;8781;-76
2022/05/15 07:37:40;;;;;;;;;16.33;16.33;25.20;34.30;;;;;;5034222;28;8801;-75
2022/05/15 07:40:06;;;;;;;;;15.33;15.33;25.20;34.50;;;;;;5032534;28;8770;-76
2022/05/15 07:42:32;;;;;;;;;9.33;9.33;25.30;34.40;;;;;;5036671;28;8847;-75
2022/05/15 07:44:59;;;;;;;;;11.00;11.00;24.90;33.10;;;;;;5038120;28;8770;-76
2022/05/15 07:47:25;;;;;;;;;15.33;15.33;24.60;34.10;;;;;;5037226;28;9455;-74
2022/05/15 07:49:51;;;;;;;;;11.33;11.33;24.90;34.30;;;;;;5036669;28;8813;-75
2022/05/15 07:52:18;;;;;;;;;13.00;13.00;25.00;34.70;;;;;;5036644;28;8778;-74
2022/05/15 07:54:43;;;;;;;;;15.00;15.00;24.90;34.70;;;;;;5036656;28;8785;-74
2022/05/15 07:57:09;;;;;;;;;15.00;14.00;25.10;34.50;;;;;;5038080;28;8777;-75
2022/05/15 07:59:35;;;;;;;;;9.33;9.33;25.30;33.90;;;;;;5038095;28;8774;-74
2022/05/15 08:02:06;;;;;;;;;13.00;13.00;25.00;34.80;;;;;;5037379;28;8758;-76
2022/05/15 08:08:00;;;;;;;;;13.00;13.00;25.20;34.10;;;;;;5036686;28;8806;-75
2022/05/15 08:10:08;;;;;;;;;14.67;14.67;25.40;32.20;;;;;;5034773;28;8797;-76
2022/05/15 08:12:34;;;;;;;;;16.33;15.33;25.20;32.80;;;;;;5036236;28;8770;-76
2022/05/15 08:15:01;;;;;;;;;15.00;15.00;25.40;32.40;;;;;;5036248;28;8761;-76
2022/05/15 08:17:27;;;;;;;;;14.67;14.67;25.50;32.10;;;;;;5036453;28;8786;-76
2022/05/15 08:25:21;;;;;;;;;11.67;11.67;25.70;31.90;;;;;;5033905;28;8896;-74
2022/05/15 08:27:47;;;;;;;;;14.00;14.00;25.50;31.50;;;;;;5036042;28;8905;-76
2022/05/15 08:30:13;;;;;;;;;12.00;12.00;25.90;31.70;;;;;;5035857;28;8814;-76
2022/05/15 08:32:39;;;;;;;;;10.33;10.33;26.00;30.20;;;;;;5033293;28;8798;-75
2022/05/15 08:35:05;;;;;;;;;10.00;10.00;26.20;29.30;;;;;;5035670;28;11543;-76
2022/05/15 08:37:31;;;;;;;;;12.67;12.67;26.10;29.30;;;;;;5036871;28;8896;-76
2022/05/15 08:39:57;;;;;;;;;11.00;11.00;26.00;29.30;;;;;;5037171;28;8912;-77
2022/05/15 08:42:55;;;;;;;;;9.00;9.00;26.20;29.40;;;;;;5037017;28;9451;-80
2022/05/15 08:45:24;;;;;;;;;12.33;12.33;26.40;29.40;;;;;;5036860;28;11495;-78
2022/05/15 08:48:02;;;;;;;;;10.00;10.00;26.50;28.80;;;;;;5036760;28;11609;-80
2022/05/15 08:50:33;;;;;;;;;13.00;13.00;26.40;29.10;;;;;;5036607;28;11519;-79
2022/05/15 08:53:08;;;;;;;;;10.33;10.33;26.10;29.20;;;;;;5036532;28;9468;-77
2022/05/15 08:55:36;;;;;;;;;8.33;8.33;26.30;29.80;;;;;;5037076;28;8761;-76
2022/05/15 08:58:26;;;;;;;;;8.67;8.67;26.40;30.60;;;;;;5035342;28;11471;-78
2022/05/15 09:00:54;;;;;;;;;10.00;10.00;26.60;28.80;;;;;;5016920;28;11490;-79
2022/05/15 09:03:31;;;;;;;;;10.00;10.00;26.70;28.70;;;;;;5016946;28;11647;-78
2022/05/15 09:06:03;;;;;;;;;12.00;12.00;27.00;28.50;;;;;;5022848;28;11527;-77
2022/05/15 09:08:57;;;;;;;;;13.33;13.33;26.90;28.60;;;;;;5035621;28;11609;-74
2022/05/15 09:11:52;;;;;;;;;12.00;12.00;27.20;28.80;;;;;;5019547;28;9491;-75
2022/05/15 09:14:54;;;;;;;;;10.00;10.00;27.50;29.00;;;;;;5016693;28;11483;-79
2022/05/15 09:17:44;;;;;;;;;14.67;14.33;27.50;27.80;;;;;;5016543;28;8740;-75
2022/05/15 09:20:12;;;;;;;;;13.67;13.67;27.30;27.80;;;;;;5016448;28;11507;-79
2022/05/15 09:22:43;;;;;;;;;12.33;12.33;27.70;28.00;;;;;;5016498;28;8745;-77
2022/05/15 09:25:19;;;;;;;;;10.33;10.33;28.00;27.50;;;;;;5016173;28;11503;-76
2022/05/15 09:28:07;;;;;;;;;11.00;11.00;27.90;26.80;;;;;;5016559;28;12200;-76
2022/05/15 09:30:42;;;;;;;;;10.33;10.33;27.60;27.80;;;;;;5016099;28;11650;-79
2022/05/15 09:33:21;;;;;;;;;11.33;11.33;28.00;29.00;;;;;;5016298;28;12249;-75
2022/05/15 09:35:47;;;;;;;;;9.00;9.00;28.30;28.20;;;;;;5016412;28;12231;-76
2022/05/15 09:38:29;;;;;;;;;11.00;11.00;28.50;27.80;;;;;;5015856;28;8761;-78
2022/05/15 09:43:54;;;;;;;;;13.00;13.00;28.50;27.50;;;;;;5034351;28;11490;-75
2022/05/15 09:46:23;;;;;;;;;10.67;10.67;28.90;28.10;;;;;;5033431;28;11492;-75
2022/05/15 09:49:01;;;;;;;;;15.67;15.67;28.80;27.10;;;;;;5034605;28;12059;-74
2022/05/15 09:51:42;;;;;;;;;17.33;17.33;28.90;26.40;;;;;;5033319;28;9471;-76
2022/05/15 09:54:09;;;;;;;;;15.33;15.33;28.90;26.20;;;;;;5032127;28;8831;-78
2022/05/15 09:56:35;;;;;;;;;24.00;23.00;29.30;26.10;;;;;;5034276;28;8797;-78
2022/05/15 09:59:12;;;;;;;;;10.33;10.33;29.40;25.80;;;;;;5034391;28;8786;-76
2022/05/15 10:01:50;;;;;;;;;18.33;18.33;29.40;25.30;;;;;;5033308;28;11437;-79
2022/05/15 10:04:39;;;;;;;;;15.00;15.00;29.70;25.90;;;;;;5032944;28;11546;-77
2022/05/15 10:07:08;;;;;;;;;13.00;13.00;29.90;25.30;;;;;;5033262;28;11554;-78
2022/05/15 10:09:41;;;;;;;;;17.33;16.33;30.20;26.00;;;;;;5035530;28;11606;-76
2022/05/15 10:12:30;;;;;;;;;14.67;14.67;30.00;25.30;;;;;;5035618;28;11530;-76
2022/05/15 10:15:00;;;;;;;;;15.00;15.00;30.00;25.60;;;;;;5031513;28;11535;-78
2022/05/15 10:17:27;;;;;;;;;9.33;9.33;30.40;26.30;;;;;;5033894;28;11500;-78
2022/05/15 10:19:56;;;;;;;;;9.33;9.33;30.60;25.80;;;;;;5033768;28;11450;-75
2022/05/15 10:22:36;;;;;;;;;10.50;10.50;30.60;25.10;;;;;;5034929;28;11477;-77
2022/05/15 10:25:39;;;;;;;;;9.75;9.75;30.10;25.30;;;;;;5033232;28;11443;-76
2022/05/15 10:28:05;;;;;;;;;8.75;8.75;30.10;25.20;;;;;;5031681;28;12148;-75
2022/05/15 10:30:46;;;;;;;;;9.50;9.50;30.50;24.90;;;;;;5035033;28;11493;-75
2022/05/15 10:33:18;;;;;;;;;10.00;10.00;30.80;25.40;;;;;;5034553;28;8833;-75
2022/05/15 10:35:59;;;;;;;;;8.75;8.75;31.00;23.80;;;;;;5034612;28;11482;-78
2022/05/15 10:38:37;;;;;;;;;9.67;9.67;30.80;23.40;;;;;;5034595;28;11527;-77
2022/05/15 10:41:24;;;;;;;;;8.50;8.50;30.80;24.50;;;;;;5034736;28;11491;-79
2022/05/15 10:44:11;;;;;;;;;9.00;9.00;31.00;24.40;;;;;;5033757;28;12158;-77
2022/05/15 10:46:59;;;;;;;;;9.33;9.33;31.20;25.00;;;;;;5034925;28;11449;-79
2022/05/15 10:49:51;;;;;;;;;9.00;9.00;31.50;24.50;;;;;;5034245;28;11481;-74
2022/05/15 10:52:42;;;;;;;;;9.00;9.00;31.60;24.70;;;;;;5004842;28;11587;-80
2022/05/15 10:58:08;;;;;;;;;8.00;8.00;32.00;23.70;;;;;;5030975;28;11474;-74
2022/05/15 11:00:52;;;;;;;;;7.75;7.75;31.90;22.10;;;;;;5034643;28;11483;-74
2022/05/15 11:03:59;;;;;;;;;9.00;9.00;31.90;23.10;;;;;;5034351;28;8794;-79
2022/05/15 11:06:42;;;;;;;;;9.50;9.50;32.20;23.60;;;;;;5034361;28;11446;-79
2022/05/15 11:09:25;;;;;;;;;10.00;10.00;32.20;22.90;;;;;;5034268;28;11481;-79
2022/05/15 11:12:10;;;;;;;;;10.50;10.50;32.20;22.90;;;;;;5034515;28;11429;-85
2022/05/15 11:14:57;;;;;;;;;10.00;10.00;32.30;24.00;;;;;;5034440;28;11570;-82
2022/05/15 11:17:37;;;;;;;;;9.75;9.75;32.40;24.30;;;;;;5034201;28;11470;-80
2022/05/15 11:20:16;;;;;;;;;9.25;9.25;32.60;22.70;;;;;;5034435;28;12179;-77
2022/05/15 11:22:48;;;;;;;;;10.67;10.67;32.60;23.70;;;;;;5034245;28;11493;-77
2022/05/15 11:25:52;;;;;;;;;10.00;10.00;32.70;22.90;;;;;;5034420;28;11554;-80
2022/05/15 11:28:39;;;;;;;;;41.00;35.33;33.00;22.70;;;;;;5033196;28;11514;-85
2022/05/15 11:31:09;;;;;;;;;13.67;13.67;33.10;21.70;;;;;;5049767;28;8806;-84
2022/05/15 11:33:44;;;;;;;;;9.00;9.00;33.40;23.10;;;;;;5033867;28;11589;-82
2022/05/15 11:36:21;;;;;;;;;8.00;8.00;33.40;22.50;;;;;;5034108;28;11442;-88
2022/05/15 11:39:27;;;;;;;;;9.00;9.00;33.40;22.00;;;;;;5034113;28;11460;-83
2022/05/15 11:42:10;;;;;;;;;6.50;6.50;33.60;21.70;;;;;;4973202;28;11517;-79
2022/05/15 11:44:42;;;;;;;;;7.75;7.75;33.80;22.90;;;;;;4973179;28;11441;-85
2022/05/15 11:47:29;;;;;;;;;8.00;8.00;33.90;21.60;;;;;;4973213;28;11454;-84
2022/05/15 11:50:08;;;;;;;;;9.00;9.00;34.10;21.40;;;;;;4973165;28;11467;-82
2022/05/15 11:52:59;;;;;;;;;8.50;8.50;34.50;21.30;;;;;;4973154;28;11586;-84
2022/05/15 11:55:36;;;;;;;;;6.75;6.75;37.00;21.90;;;;;;4972632;28;11446;-83
2022/05/15 11:58:32;;;;;;;;;9.25;9.25;45.10;20.80;;;;;;4973171;28;11454;-84
2022/05/15 12:01:12;;;;;;;;;9.00;9.00;51.20;17.00;;;;;;4915441;29;12277;-85
2022/05/15 12:03:49;;;;;;;;;6.50;6.50;55.30;14.40;;;;;;4915692;29;11561;-81
2022/05/15 12:06:25;;;;;;;;;8.00;8.00;58.10;13.00;;;;;;4915528;29;11607;-80
2022/05/15 12:09:12;;;;;;;;;10.00;10.00;59.80;12.00;;;;;;4915522;29;11550;-82
2022/05/15 12:11:38;;;;;;;;;8.75;8.75;54.70;10.20;;;;;;4919229;29;11544;-77
2022/05/15 12:14:38;;;;;;;;;8.25;8.25;48.90;12.30;;;;;;4953678;29;12329;-75
2022/05/15 12:17:30;;;;;;;;;8.00;8.00;44.10;14.70;;;;;;4896597;29;8816;-78
2022/05/15 12:20:18;;;;;;;;;8.75;8.75;41.30;16.60;;;;;;4896627;29;11590;-75
2022/05/15 12:23:06;;;;;;;;;8.25;8.25;39.20;17.50;;;;;;4896636;29;11523;-79
2022/05/15 12:26:05;;;;;;;;;7.00;7.00;38.00;18.30;;;;;;4896433;29;11574;-79
2022/05/15 12:28:52;;;;;;;;;8.75;8.75;37.10;19.60;;;;;;4897105;29;11640;-78
2022/05/15 12:31:26;;;;;;;;;7.00;7.00;36.40;19.70;;;;;;4899822;29;11583;-78
2022/05/15 12:33:53;;;;;;;;;7.00;7.00;35.90;20.50;;;;;;4899801;29;11589;-79
2022/05/15 12:36:44;;;;;;;;;7.75;7.75;35.50;20.20;;;;;;4900148;29;11573;-78
2022/05/15 12:39:26;;;;;;;;;6.75;6.75;35.10;21.20;;;;;;4956868;28;11500;-78
2022/05/15 12:41:52;;;;;;;;;7.00;7.00;34.90;20.90;;;;;;4956980;28;11462;-83
2022/05/15 12:44:34;;;;;;;;;8.50;8.50;34.90;21.20;;;;;;4956820;28;11431;-84
2022/05/15 12:47:04;;;;;;;;;9.00;9.00;34.70;21.60;;;;;;4960595;28;11488;-84
2022/05/15 12:49:32;;;;;;;;;7.50;7.50;34.70;21.70;;;;;;4956894;28;11523;-86
2022/05/15 12:52:18;;;;;;;;;7.00;7.00;34.60;20.50;;;;;;5027610;28;11602;-85
2022/05/15 12:54:46;;;;;;;;;8.50;8.50;34.50;21.00;;;;;;5037091;28;11534;-85
2022/05/15 12:57:16;;;;;;;;;7.75;7.75;34.40;21.30;;;;;;5037057;28;11472;-84
2022/05/15 12:59:48;;;;;;;;;8.75;8.75;34.70;22.10;;;;;;5036750;28;11469;-79
2022/05/15 13:02:17;;;;;;;;;8.25;8.25;34.70;20.40;;;;;;5036545;28;11475;-77
2022/05/15 13:04:50;;;;;;;;;7.25;7.25;34.80;21.20;;;;;;5036666;28;11473;-83
2022/05/15 13:07:21;;;;;;;;;7.50;7.50;34.90;20.90;;;;;;5036605;28;11450;-78
2022/05/15 13:09:57;;;;;;;;;6.00;6.00;35.10;21.30;;;;;;5036790;28;12172;-81
2022/05/15 13:12:24;;;;;;;;;8.50;8.50;35.40;21.40;;;;;;5036530;28;11451;-78
2022/05/15 13:14:51;;;;;;;;;7.75;7.75;35.30;20.20;;;;;;5036483;28;11441;-81
2022/05/15 13:17:28;;;;;;;;;6.50;6.50;35.20;19.70;;;;;;5036727;28;11585;-81